Aeroporto :
LOGIN :

Iscrizione | Disclaimer

   EN    FR    IT 

 










Sommario :    VFR   VFR Marginale   IFR   IFR Intensivo   IFR Molto Intensivo
Visibilità : 
Base nubi : 
>= 8 km
>= 3000ft
5 / 8 km
1000 / 3000 ft
1500m / 5 km
500 / 1000 ft
800 / 1500m
200 / 500 ft
< 800m
< 200 ft
Simboli :   Temporali  Nebbia  Neve Forte  Precipitazioni Forti  Vento > 20 kt
SIGMETs :   Varie  Temporali  Ghiacco  Turbolenza  Onda orograficha  Ceneri Vulcaniche






- Altitudine del aeroporto : 290 ft
- Codice IATA : ACI


EGJA - Alderney

ULTIMO METAR :
  • 221520Z 13020KT 9999 FEW015 11/06 Q0988

METARs OBSOLETI :
  • 221450Z 13020KT 9999 FEW015 11/06 Q0989
  • 221420Z 15021KT 9999 FEW015 11/06 Q0989
  • 221350Z 15022KT 9999 FEW015 11/06 Q0989
  • 221320Z 15022KT 9999 FEW015 11/06 Q0990
  • 221250Z 16021KT 9999 FEW015 11/07 Q0990

TAF TAF EGJA
Valido dal 22 a 15 ore il 23 a 00 ore UTC


221402Z 2215/2300 15020KT 9999 FEW015 BKN040
TEMPO 2215/2216 14023G33KT
BECMG 2216/2218 11023KT 8000 -RA BKN015
TEMPO 2216/2300 10026G36KT 3000 RA BKN009



MetMap, La meteo Aeronautica in un colpo d'occhio ! - Copyright ORBIFLY Dicembre 2007 - Disclaimer

ORBIFLY MET'MAP TEAM :

Programmazione e sviluppo : Alexandra Zaïnal
Concezione e sviluppo : Baudouin d'Aumeries
Co-Programmazione e sviluppo : Marc-Olivier Méhu
Supporto tecnico e logistico : Manuel Goepfert
Aiuto per la traduzione : Arnaldo La Scala

Contatto : metmap@orbifly.com




FONTI E CREDITI :

   NOAA